sensor_id;sensor_type;location;lat;lon;timestamp;temperature;humidity
37910;DHT22;23741;49.446;8.754;2024-01-06T00:01:42;10.00;69.20
37910;DHT22;23741;49.446;8.754;2024-01-06T00:03:44;10.00;69.40
37910;DHT22;23741;49.446;8.754;2024-01-06T00:05:46;10.00;69.40
37910;DHT22;23741;49.446;8.754;2024-01-06T00:07:47;10.00;69.30
37910;DHT22;23741;49.446;8.754;2024-01-06T00:09:49;10.00;69.30
37910;DHT22;23741;49.446;8.754;2024-01-06T00:11:51;10.00;69.30
37910;DHT22;23741;49.446;8.754;2024-01-06T00:13:53;10.00;69.30
37910;DHT22;23741;49.446;8.754;2024-01-06T00:15:55;10.00;69.30
37910;DHT22;23741;49.446;8.754;2024-01-06T00:17:57;9.90;69.20
37910;DHT22;23741;49.446;8.754;2024-01-06T00:19:59;9.90;69.30
37910;DHT22;23741;49.446;8.754;2024-01-06T00:22:03;9.90;69.40
37910;DHT22;23741;49.446;8.754;2024-01-06T00:24:05;9.90;69.40
37910;DHT22;23741;49.446;8.754;2024-01-06T00:26:07;9.90;69.40
37910;DHT22;23741;49.446;8.754;2024-01-06T00:28:10;9.90;69.40
37910;DHT22;23741;49.446;8.754;2024-01-06T00:30:12;9.90;69.50
37910;DHT22;23741;49.446;8.754;2024-01-06T00:32:14;9.90;69.50
37910;DHT22;23741;49.446;8.754;2024-01-06T00:34:16;9.80;69.40
37910;DHT22;23741;49.446;8.754;2024-01-06T00:36:18;9.80;69.60
37910;DHT22;23741;49.446;8.754;2024-01-06T00:38:20;9.80;69.70
37910;DHT22;23741;49.446;8.754;2024-01-06T00:40:21;9.80;69.80
37910;DHT22;23741;49.446;8.754;2024-01-06T00:42:23;9.80;69.80
37910;DHT22;23741;49.446;8.754;2024-01-06T00:44:25;9.80;69.80
37910;DHT22;23741;49.446;8.754;2024-01-06T00:46:27;9.80;69.70
37910;DHT22;23741;49.446;8.754;2024-01-06T00:48:29;9.80;69.70
37910;DHT22;23741;49.446;8.754;2024-01-06T00:50:31;9.80;69.80
37910;DHT22;23741;49.446;8.754;2024-01-06T00:52:33;9.80;69.80
37910;DHT22;23741;49.446;8.754;2024-01-06T00:54:35;9.80;69.80
37910;DHT22;23741;49.446;8.754;2024-01-06T00:56:37;9.80;69.80
37910;DHT22;23741;49.446;8.754;2024-01-06T00:58:39;9.80;70.00
37910;DHT22;23741;49.446;8.754;2024-01-06T01:00:40;9.90;69.90
37910;DHT22;23741;49.446;8.754;2024-01-06T01:02:42;9.80;69.80
37910;DHT22;23741;49.446;8.754;2024-01-06T01:04:44;9.80;69.80
37910;DHT22;23741;49.446;8.754;2024-01-06T01:06:46;9.70;69.80
37910;DHT22;23741;49.446;8.754;2024-01-06T01:08:48;9.70;69.90
37910;DHT22;23741;49.446;8.754;2024-01-06T01:10:50;9.80;69.90
37910;DHT22;23741;49.446;8.754;2024-01-06T01:12:52;9.80;69.80
37910;DHT22;23741;49.446;8.754;2024-01-06T01:14:54;9.70;69.70
37910;DHT22;23741;49.446;8.754;2024-01-06T01:16:56;9.70;69.70
37910;DHT22;23741;49.446;8.754;2024-01-06T01:18:58;9.70;69.80
37910;DHT22;23741;49.446;8.754;2024-01-06T01:23:50;9.70;70.00
37910;DHT22;23741;49.446;8.754;2024-01-06T01:27:06;9.70;70.10
37910;DHT22;23741;49.446;8.754;2024-01-06T01:29:49;9.90;70.20
37910;DHT22;23741;49.446;8.754;2024-01-06T01:39:40;9.70;70.10
37910;DHT22;23741;49.446;8.754;2024-01-06T01:42:11;9.70;70.10
37910;DHT22;23741;49.446;8.754;2024-01-06T01:44:58;9.70;70.30
37910;DHT22;23741;49.446;8.754;2024-01-06T02:07:50;9.70;70.50
37910;DHT22;23741;49.446;8.754;2024-01-06T02:17:31;9.70;70.40
37910;DHT22;23741;49.446;8.754;2024-01-06T02:20:33;9.70;70.50
37910;DHT22;23741;49.446;8.754;2024-01-06T02:30:28;9.80;70.60
37910;DHT22;23741;49.446;8.754;2024-01-06T02:36:38;9.80;70.60
37910;DHT22;23741;49.446;8.754;2024-01-06T02:40:00;9.80;70.70
37910;DHT22;23741;49.446;8.754;2024-01-06T02:53:33;9.80;70.70
37910;DHT22;23741;49.446;8.754;2024-01-06T02:55:46;9.90;70.90
37910;DHT22;23741;49.446;8.754;2024-01-06T02:58:04;9.80;70.70
37910;DHT22;23741;49.446;8.754;2024-01-06T03:10:31;10.00;70.80
37910;DHT22;23741;49.446;8.754;2024-01-06T03:13:57;10.00;70.80
37910;DHT22;23741;49.446;8.754;2024-01-06T03:24:10;10.10;70.70
37910;DHT22;23741;49.446;8.754;2024-01-06T03:26:51;10.10;70.60
37910;DHT22;23741;49.446;8.754;2024-01-06T03:33:18;10.10;70.60
37910;DHT22;23741;49.446;8.754;2024-01-06T03:36:22;10.10;70.60
37910;DHT22;23741;49.446;8.754;2024-01-06T03:42:09;10.10;70.60
37910;DHT22;23741;49.446;8.754;2024-01-06T03:44:46;10.10;70.40
37910;DHT22;23741;49.446;8.754;2024-01-06T03:47:46;10.10;70.80
37910;DHT22;23741;49.446;8.754;2024-01-06T03:57:48;10.10;70.50
37910;DHT22;23741;49.446;8.754;2024-01-06T04:03:41;10.10;70.30
37910;DHT22;23741;49.446;8.754;2024-01-06T04:06:53;10.10;70.30
37910;DHT22;23741;49.446;8.754;2024-01-06T04:09:10;10.00;70.20
37910;DHT22;23741;49.446;8.754;2024-01-06T04:20:41;10.20;70.30
37910;DHT22;23741;49.446;8.754;2024-01-06T04:23:33;10.20;70.30
37910;DHT22;23741;49.446;8.754;2024-01-06T04:25:44;10.20;71.10
37910;DHT22;23741;49.446;8.754;2024-01-06T04:27:49;10.20;70.40
37910;DHT22;23741;49.446;8.754;2024-01-06T04:29:54;10.10;70.30
37910;DHT22;23741;49.446;8.754;2024-01-06T04:42:21;10.30;70.30
37910;DHT22;23741;49.446;8.754;2024-01-06T04:52:25;10.30;70.10
37910;DHT22;23741;49.446;8.754;2024-01-06T05:19:16;10.30;70.40
37910;DHT22;23741;49.446;8.754;2024-01-06T05:21:57;10.20;69.70
37910;DHT22;23741;49.446;8.754;2024-01-06T05:24:37;10.40;70.00
37910;DHT22;23741;49.446;8.754;2024-01-06T05:29:32;10.30;70.00
37910;DHT22;23741;49.446;8.754;2024-01-06T05:31:37;10.30;69.60
37910;DHT22;23741;49.446;8.754;2024-01-06T05:33:55;10.30;69.80
37910;DHT22;23741;49.446;8.754;2024-01-06T05:36:28;10.30;69.50
37910;DHT22;23741;49.446;8.754;2024-01-06T05:38:32;10.30;69.70
37910;DHT22;23741;49.446;8.754;2024-01-06T05:44:17;10.30;69.60
37910;DHT22;23741;49.446;8.754;2024-01-06T05:47:08;10.30;69.60
37910;DHT22;23741;49.446;8.754;2024-01-06T05:54:22;10.30;69.40
37910;DHT22;23741;49.446;8.754;2024-01-06T06:00:09;10.40;69.50
37910;DHT22;23741;49.446;8.754;2024-01-06T06:02:30;10.30;69.40
37910;DHT22;23741;49.446;8.754;2024-01-06T06:07:20;10.10;69.20
37910;DHT22;23741;49.446;8.754;2024-01-06T06:19:35;10.10;69.40
37910;DHT22;23741;49.446;8.754;2024-01-06T06:39:49;10.20;69.90
37910;DHT22;23741;49.446;8.754;2024-01-06T06:49:25;10.30;69.70
37910;DHT22;23741;49.446;8.754;2024-01-06T06:55:26;10.30;69.60
37910;DHT22;23741;49.446;8.754;2024-01-06T06:59:37;10.30;69.70
37910;DHT22;23741;49.446;8.754;2024-01-06T07:18:12;10.10;69.70
37910;DHT22;23741;49.446;8.754;2024-01-06T07:20:42;10.20;69.80
37910;DHT22;23741;49.446;8.754;2024-01-06T07:24:25;10.10;69.80
37910;DHT22;23741;49.446;8.754;2024-01-06T07:49:31;10.30;69.70
37910;DHT22;23741;49.446;8.754;2024-01-06T07:52:20;10.40;70.40
37910;DHT22;23741;49.446;8.754;2024-01-06T07:54:24;10.40;69.70
37910;DHT22;23741;49.446;8.754;2024-01-06T08:00:24;10.40;70.10
37910;DHT22;23741;49.446;8.754;2024-01-06T08:03:06;10.40;70.40
37910;DHT22;23741;49.446;8.754;2024-01-06T08:05:50;10.60;70.60
37910;DHT22;23741;49.446;8.754;2024-01-06T08:08:30;10.40;70.20
37910;DHT22;23741;49.446;8.754;2024-01-06T08:17:43;10.40;70.10
37910;DHT22;23741;49.446;8.754;2024-01-06T08:21:26;10.50;70.30
37910;DHT22;23741;49.446;8.754;2024-01-06T08:24:46;10.40;70.20
37910;DHT22;23741;49.446;8.754;2024-01-06T08:31:44;10.50;70.40
37910;DHT22;23741;49.446;8.754;2024-01-06T08:45:27;10.60;70.20
37910;DHT22;23741;49.446;8.754;2024-01-06T08:48:02;10.60;70.20
37910;DHT22;23741;49.446;8.754;2024-01-06T08:50:37;10.60;70.20
37910;DHT22;23741;49.446;8.754;2024-01-06T08:53:22;10.70;70.30
37910;DHT22;23741;49.446;8.754;2024-01-06T08:55:27;10.40;71.10
37910;DHT22;23741;49.446;8.754;2024-01-06T08:58:33;10.60;70.40
37910;DHT22;23741;49.446;8.754;2024-01-06T09:15:26;10.60;70.40
37910;DHT22;23741;49.446;8.754;2024-01-06T09:21:45;10.50;70.30
37910;DHT22;23741;49.446;8.754;2024-01-06T09:23:54;10.60;70.50
37910;DHT22;23741;49.446;8.754;2024-01-06T09:26:36;10.70;70.60
37910;DHT22;23741;49.446;8.754;2024-01-06T09:29:30;10.80;70.70
37910;DHT22;23741;49.446;8.754;2024-01-06T09:31:45;10.70;70.70
37910;DHT22;23741;49.446;8.754;2024-01-06T09:38:18;10.70;70.10
37910;DHT22;23741;49.446;8.754;2024-01-06T09:44:05;10.70;70.10
37910;DHT22;23741;49.446;8.754;2024-01-06T09:49:55;10.70;70.20
37910;DHT22;23741;49.446;8.754;2024-01-06T09:59:02;10.80;70.40
37910;DHT22;23741;49.446;8.754;2024-01-06T10:01:41;10.80;70.40
37910;DHT22;23741;49.446;8.754;2024-01-06T10:04:20;10.80;70.40
37910;DHT22;23741;49.446;8.754;2024-01-06T10:06:48;10.80;70.40
37910;DHT22;23741;49.446;8.754;2024-01-06T10:12:15;10.80;70.30
37910;DHT22;23741;49.446;8.754;2024-01-06T10:14:29;10.80;70.30
37910;DHT22;23741;49.446;8.754;2024-01-06T10:16:58;10.70;70.20
37910;DHT22;23741;49.446;8.754;2024-01-06T10:19:06;10.80;70.30
37910;DHT22;23741;49.446;8.754;2024-01-06T10:21:39;10.80;70.20
37910;DHT22;23741;49.446;8.754;2024-01-06T10:24:47;10.70;70.30
37910;DHT22;23741;49.446;8.754;2024-01-06T10:27:07;10.90;70.30
37910;DHT22;23741;49.446;8.754;2024-01-06T10:36:25;10.90;70.40
37910;DHT22;23741;49.446;8.754;2024-01-06T10:42:54;10.90;70.40
37910;DHT22;23741;49.446;8.754;2024-01-06T10:45:10;10.90;70.50
37910;DHT22;23741;49.446;8.754;2024-01-06T10:50:46;10.90;70.70
37910;DHT22;23741;49.446;8.754;2024-01-06T10:53:31;10.90;70.60
37910;DHT22;23741;49.446;8.754;2024-01-06T10:56:00;11.10;70.70
37910;DHT22;23741;49.446;8.754;2024-01-06T10:58:06;11.10;70.60
37910;DHT22;23741;49.446;8.754;2024-01-06T11:00:08;11.00;70.40
37910;DHT22;23741;49.446;8.754;2024-01-06T11:02:11;11.00;70.30
37910;DHT22;23741;49.446;8.754;2024-01-06T11:04:13;11.00;70.20
37910;DHT22;23741;49.446;8.754;2024-01-06T11:06:17;11.00;70.20
37910;DHT22;23741;49.446;8.754;2024-01-06T11:08:20;11.00;70.30
37910;DHT22;23741;49.446;8.754;2024-01-06T11:10:22;11.00;70.20
37910;DHT22;23741;49.446;8.754;2024-01-06T11:12:25;11.00;70.30
37910;DHT22;23741;49.446;8.754;2024-01-06T11:14:28;11.00;70.20
37910;DHT22;23741;49.446;8.754;2024-01-06T11:16:33;11.10;70.30
37910;DHT22;23741;49.446;8.754;2024-01-06T11:18:39;11.00;70.20
37910;DHT22;23741;49.446;8.754;2024-01-06T11:21:02;11.00;70.50
37910;DHT22;23741;49.446;8.754;2024-01-06T11:23:19;11.00;70.50
37910;DHT22;23741;49.446;8.754;2024-01-06T11:25:22;11.00;70.40
37910;DHT22;23741;49.446;8.754;2024-01-06T11:27:25;11.10;70.40
37910;DHT22;23741;49.446;8.754;2024-01-06T11:29:31;11.10;70.30
37910;DHT22;23741;49.446;8.754;2024-01-06T11:31:33;11.10;70.30
37910;DHT22;23741;49.446;8.754;2024-01-06T11:33:44;11.10;70.30
37910;DHT22;23741;49.446;8.754;2024-01-06T11:35:49;11.10;70.40
37910;DHT22;23741;49.446;8.754;2024-01-06T11:37:55;11.10;70.30
37910;DHT22;23741;49.446;8.754;2024-01-06T11:39:58;11.10;70.20
37910;DHT22;23741;49.446;8.754;2024-01-06T11:42:00;11.10;70.20
37910;DHT22;23741;49.446;8.754;2024-01-06T11:44:04;11.10;70.40
37910;DHT22;23741;49.446;8.754;2024-01-06T11:46:06;11.10;70.30
37910;DHT22;23741;49.446;8.754;2024-01-06T11:48:11;11.10;70.30
37910;DHT22;23741;49.446;8.754;2024-01-06T11:50:16;11.10;70.20
37910;DHT22;23741;49.446;8.754;2024-01-06T11:52:18;11.10;70.30
37910;DHT22;23741;49.446;8.754;2024-01-06T11:54:23;11.20;70.30
37910;DHT22;23741;49.446;8.754;2024-01-06T11:56:25;11.10;70.20
37910;DHT22;23741;49.446;8.754;2024-01-06T11:58:27;11.20;70.30
37910;DHT22;23741;49.446;8.754;2024-01-06T12:00:30;11.20;70.20
37910;DHT22;23741;49.446;8.754;2024-01-06T12:02:33;11.20;70.40
37910;DHT22;23741;49.446;8.754;2024-01-06T12:04:36;11.20;70.40
37910;DHT22;23741;49.446;8.754;2024-01-06T12:06:38;11.20;70.40
37910;DHT22;23741;49.446;8.754;2024-01-06T12:08:41;11.20;70.40
37910;DHT22;23741;49.446;8.754;2024-01-06T12:10:44;11.20;70.40
37910;DHT22;23741;49.446;8.754;2024-01-06T12:15:01;11.30;70.20
37910;DHT22;23741;49.446;8.754;2024-01-06T12:17:04;11.20;70.40
37910;DHT22;23741;49.446;8.754;2024-01-06T12:19:07;11.20;70.30
37910;DHT22;23741;49.446;8.754;2024-01-06T12:21:09;11.30;70.40
37910;DHT22;23741;49.446;8.754;2024-01-06T12:23:12;11.30;70.30
37910;DHT22;23741;49.446;8.754;2024-01-06T12:25:25;11.30;70.20
37910;DHT22;23741;49.446;8.754;2024-01-06T12:27:28;11.40;70.40
37910;DHT22;23741;49.446;8.754;2024-01-06T12:29:32;11.40;70.30
37910;DHT22;23741;49.446;8.754;2024-01-06T12:31:35;11.30;70.10
37910;DHT22;23741;49.446;8.754;2024-01-06T12:33:41;11.40;70.10
37910;DHT22;23741;49.446;8.754;2024-01-06T12:35:44;11.30;70.10
37910;DHT22;23741;49.446;8.754;2024-01-06T12:37:46;11.40;70.10
37910;DHT22;23741;49.446;8.754;2024-01-06T12:39:48;11.40;70.20
37910;DHT22;23741;49.446;8.754;2024-01-06T12:41:50;11.40;70.20
37910;DHT22;23741;49.446;8.754;2024-01-06T12:43:57;11.40;70.20
37910;DHT22;23741;49.446;8.754;2024-01-06T12:45:58;11.40;70.40
37910;DHT22;23741;49.446;8.754;2024-01-06T12:48:01;11.40;70.40
37910;DHT22;23741;49.446;8.754;2024-01-06T12:50:03;11.40;70.30
37910;DHT22;23741;49.446;8.754;2024-01-06T12:52:06;11.50;70.20
37910;DHT22;23741;49.446;8.754;2024-01-06T12:54:08;11.50;70.20
37910;DHT22;23741;49.446;8.754;2024-01-06T12:56:10;11.50;70.20
37910;DHT22;23741;49.446;8.754;2024-01-06T12:58:13;11.50;70.20
37910;DHT22;23741;49.446;8.754;2024-01-06T13:00:15;11.50;70.20
37910;DHT22;23741;49.446;8.754;2024-01-06T13:02:18;11.50;70.10
37910;DHT22;23741;49.446;8.754;2024-01-06T13:04:20;11.50;70.10
37910;DHT22;23741;49.446;8.754;2024-01-06T13:06:25;11.50;70.00
37910;DHT22;23741;49.446;8.754;2024-01-06T13:08:27;11.60;70.10
37910;DHT22;23741;49.446;8.754;2024-01-06T13:10:29;11.50;70.00
37910;DHT22;23741;49.446;8.754;2024-01-06T13:12:31;11.50;70.00
37910;DHT22;23741;49.446;8.754;2024-01-06T13:14:33;11.50;70.00
37910;DHT22;23741;49.446;8.754;2024-01-06T13:16:35;11.60;70.00
37910;DHT22;23741;49.446;8.754;2024-01-06T13:18:38;11.50;70.00
37910;DHT22;23741;49.446;8.754;2024-01-06T13:20:40;11.50;70.00
37910;DHT22;23741;49.446;8.754;2024-01-06T13:22:43;11.50;70.00
37910;DHT22;23741;49.446;8.754;2024-01-06T13:24:45;11.50;70.80
37910;DHT22;23741;49.446;8.754;2024-01-06T13:26:47;11.50;70.00
37910;DHT22;23741;49.446;8.754;2024-01-06T13:28:49;11.50;70.00
37910;DHT22;23741;49.446;8.754;2024-01-06T13:30:53;11.50;70.20
37910;DHT22;23741;49.446;8.754;2024-01-06T13:33:07;11.50;70.20
37910;DHT22;23741;49.446;8.754;2024-01-06T13:35:11;11.50;70.10
37910;DHT22;23741;49.446;8.754;2024-01-06T13:37:14;11.60;70.30
37910;DHT22;23741;49.446;8.754;2024-01-06T13:39:18;11.50;70.20
37910;DHT22;23741;49.446;8.754;2024-01-06T13:41:23;11.50;70.10
37910;DHT22;23741;49.446;8.754;2024-01-06T13:43:26;11.50;70.10
37910;DHT22;23741;49.446;8.754;2024-01-06T13:45:29;11.60;70.20
37910;DHT22;23741;49.446;8.754;2024-01-06T13:47:32;11.60;70.10
37910;DHT22;23741;49.446;8.754;2024-01-06T13:49:35;11.60;70.10
37910;DHT22;23741;49.446;8.754;2024-01-06T13:51:38;11.60;70.20
37910;DHT22;23741;49.446;8.754;2024-01-06T13:53:44;11.50;70.00
37910;DHT22;23741;49.446;8.754;2024-01-06T13:55:46;11.60;70.20
37910;DHT22;23741;49.446;8.754;2024-01-06T13:57:50;11.60;70.10
37910;DHT22;23741;49.446;8.754;2024-01-06T13:59:52;11.60;70.00
37910;DHT22;23741;49.446;8.754;2024-01-06T14:01:55;11.50;70.00
37910;DHT22;23741;49.446;8.754;2024-01-06T14:03:58;11.60;70.10
37910;DHT22;23741;49.446;8.754;2024-01-06T14:06:01;11.60;70.10
37910;DHT22;23741;49.446;8.754;2024-01-06T14:08:05;11.60;70.20
37910;DHT22;23741;49.446;8.754;2024-01-06T14:10:08;11.60;70.00
37910;DHT22;23741;49.446;8.754;2024-01-06T14:12:26;11.50;70.00
37910;DHT22;23741;49.446;8.754;2024-01-06T14:25:58;11.70;70.30
37910;DHT22;23741;49.446;8.754;2024-01-06T14:32:28;11.60;70.20
37910;DHT22;23741;49.446;8.754;2024-01-06T15:26:02;11.60;71.10
37910;DHT22;23741;49.446;8.754;2024-01-06T15:43:01;11.50;70.60
37910;DHT22;23741;49.446;8.754;2024-01-06T16:06:29;11.60;70.50
37910;DHT22;23741;49.446;8.754;2024-01-06T16:12:55;11.50;70.30
37910;DHT22;23741;49.446;8.754;2024-01-06T16:19:58;11.50;70.50
37910;DHT22;23741;49.446;8.754;2024-01-06T16:31:08;11.50;70.70
37910;DHT22;23741;49.446;8.754;2024-01-06T16:48:51;11.40;70.60
37910;DHT22;23741;49.446;8.754;2024-01-06T16:59:08;11.40;70.60
37910;DHT22;23741;49.446;8.754;2024-01-06T17:02:47;11.40;70.70
37910;DHT22;23741;49.446;8.754;2024-01-06T17:30:15;11.40;71.10
37910;DHT22;23741;49.446;8.754;2024-01-06T17:40:17;11.30;71.80
37910;DHT22;23741;49.446;8.754;2024-01-06T17:43:37;11.30;72.00
37910;DHT22;23741;49.446;8.754;2024-01-06T17:46:42;11.30;71.30
37910;DHT22;23741;49.446;8.754;2024-01-06T17:49:16;11.20;71.10
37910;DHT22;23741;49.446;8.754;2024-01-06T17:59:05;11.30;71.20
37910;DHT22;23741;49.446;8.754;2024-01-06T18:02:06;11.30;71.20
37910;DHT22;23741;49.446;8.754;2024-01-06T18:05:14;11.30;71.20
37910;DHT22;23741;49.446;8.754;2024-01-06T18:14:12;11.20;71.30
37910;DHT22;23741;49.446;8.754;2024-01-06T18:16:14;11.30;71.60
37910;DHT22;23741;49.446;8.754;2024-01-06T18:18:16;11.30;71.60
37910;DHT22;23741;49.446;8.754;2024-01-06T18:20:20;11.30;72.10
37910;DHT22;23741;49.446;8.754;2024-01-06T18:22:25;11.30;71.40
37910;DHT22;23741;49.446;8.754;2024-01-06T18:24:26;11.30;71.40
37910;DHT22;23741;49.446;8.754;2024-01-06T18:26:28;11.30;71.30
37910;DHT22;23741;49.446;8.754;2024-01-06T18:28:30;11.40;71.40
37910;DHT22;23741;49.446;8.754;2024-01-06T18:30:32;11.30;71.20
37910;DHT22;23741;49.446;8.754;2024-01-06T18:32:34;11.30;71.20
37910;DHT22;23741;49.446;8.754;2024-01-06T18:34:36;11.50;71.20
37910;DHT22;23741;49.446;8.754;2024-01-06T18:36:38;11.30;71.20
37910;DHT22;23741;49.446;8.754;2024-01-06T18:38:40;11.30;71.10
37910;DHT22;23741;49.446;8.754;2024-01-06T18:40:42;11.30;71.20
37910;DHT22;23741;49.446;8.754;2024-01-06T18:42:44;11.30;71.30
37910;DHT22;23741;49.446;8.754;2024-01-06T18:44:46;11.30;71.40
37910;DHT22;23741;49.446;8.754;2024-01-06T18:46:48;11.30;71.40
37910;DHT22;23741;49.446;8.754;2024-01-06T18:48:50;11.30;71.40
37910;DHT22;23741;49.446;8.754;2024-01-06T18:50:52;11.30;71.40
37910;DHT22;23741;49.446;8.754;2024-01-06T18:52:54;11.30;71.50
37910;DHT22;23741;49.446;8.754;2024-01-06T18:54:56;11.30;71.50
37910;DHT22;23741;49.446;8.754;2024-01-06T18:56:58;11.30;71.70
37910;DHT22;23741;49.446;8.754;2024-01-06T18:59:00;11.30;71.80
37910;DHT22;23741;49.446;8.754;2024-01-06T19:01:02;11.40;71.60
37910;DHT22;23741;49.446;8.754;2024-01-06T19:03:04;11.40;71.50
37910;DHT22;23741;49.446;8.754;2024-01-06T19:05:07;11.40;71.40
37910;DHT22;23741;49.446;8.754;2024-01-06T19:07:09;11.40;71.40
37910;DHT22;23741;49.446;8.754;2024-01-06T19:09:11;11.40;71.30
37910;DHT22;23741;49.446;8.754;2024-01-06T19:11:17;11.30;71.20
37910;DHT22;23741;49.446;8.754;2024-01-06T19:13:19;11.40;71.40
37910;DHT22;23741;49.446;8.754;2024-01-06T19:15:21;11.30;71.20
37910;DHT22;23741;49.446;8.754;2024-01-06T19:17:23;11.30;71.20
37910;DHT22;23741;49.446;8.754;2024-01-06T19:19:25;11.30;71.30
37910;DHT22;23741;49.446;8.754;2024-01-06T19:21:27;11.30;71.30
37910;DHT22;23741;49.446;8.754;2024-01-06T19:23:29;11.30;71.30
37910;DHT22;23741;49.446;8.754;2024-01-06T19:25:31;11.30;71.20
37910;DHT22;23741;49.446;8.754;2024-01-06T19:27:33;11.30;71.30
37910;DHT22;23741;49.446;8.754;2024-01-06T19:29:36;11.30;71.50
37910;DHT22;23741;49.446;8.754;2024-01-06T19:31:43;11.30;71.60
37910;DHT22;23741;49.446;8.754;2024-01-06T19:33:45;11.30;71.60
37910;DHT22;23741;49.446;8.754;2024-01-06T19:35:48;11.30;71.40
37910;DHT22;23741;49.446;8.754;2024-01-06T19:37:50;11.30;71.30
37910;DHT22;23741;49.446;8.754;2024-01-06T19:39:52;11.30;71.20
37910;DHT22;23741;49.446;8.754;2024-01-06T19:41:54;11.30;71.20
37910;DHT22;23741;49.446;8.754;2024-01-06T19:43:58;11.30;71.20
37910;DHT22;23741;49.446;8.754;2024-01-06T19:46:03;11.30;71.30
37910;DHT22;23741;49.446;8.754;2024-01-06T19:48:09;11.30;71.00
37910;DHT22;23741;49.446;8.754;2024-01-06T19:50:14;11.30;70.90
37910;DHT22;23741;49.446;8.754;2024-01-06T19:52:17;11.30;71.10
37910;DHT22;23741;49.446;8.754;2024-01-06T19:54:19;11.40;72.00
37910;DHT22;23741;49.446;8.754;2024-01-06T19:56:22;11.20;71.10
37910;DHT22;23741;49.446;8.754;2024-01-06T19:58:24;11.20;71.30
37910;DHT22;23741;49.446;8.754;2024-01-06T20:00:27;11.20;71.20
37910;DHT22;23741;49.446;8.754;2024-01-06T20:02:29;11.20;70.90
37910;DHT22;23741;49.446;8.754;2024-01-06T20:04:31;11.20;71.00
37910;DHT22;23741;49.446;8.754;2024-01-06T20:06:33;11.20;71.00
37910;DHT22;23741;49.446;8.754;2024-01-06T20:08:35;11.20;71.00
37910;DHT22;23741;49.446;8.754;2024-01-06T20:10:37;11.20;71.10
37910;DHT22;23741;49.446;8.754;2024-01-06T20:12:40;11.10;71.40
37910;DHT22;23741;49.446;8.754;2024-01-06T20:14:42;11.20;71.50
37910;DHT22;23741;49.446;8.754;2024-01-06T20:16:44;11.10;71.30
37910;DHT22;23741;49.446;8.754;2024-01-06T20:18:47;11.10;71.20
37910;DHT22;23741;49.446;8.754;2024-01-06T20:20:51;11.10;70.90
37910;DHT22;23741;49.446;8.754;2024-01-06T20:22:53;11.10;70.70
37910;DHT22;23741;49.446;8.754;2024-01-06T20:24:55;11.10;71.00
37910;DHT22;23741;49.446;8.754;2024-01-06T20:26:58;11.10;71.10
37910;DHT22;23741;49.446;8.754;2024-01-06T20:29:00;11.00;71.10
37910;DHT22;23741;49.446;8.754;2024-01-06T20:31:02;11.00;71.30
37910;DHT22;23741;49.446;8.754;2024-01-06T20:33:06;11.10;71.30
37910;DHT22;23741;49.446;8.754;2024-01-06T20:35:08;11.00;71.10
37910;DHT22;23741;49.446;8.754;2024-01-06T20:37:11;11.00;71.10
37910;DHT22;23741;49.446;8.754;2024-01-06T20:39:14;11.00;70.70
37910;DHT22;23741;49.446;8.754;2024-01-06T20:41:16;11.00;70.30
37910;DHT22;23741;49.446;8.754;2024-01-06T20:43:18;11.00;70.00
37910;DHT22;23741;49.446;8.754;2024-01-06T20:45:19;10.90;69.70
37910;DHT22;23741;49.446;8.754;2024-01-06T20:47:22;10.90;69.00
37910;DHT22;23741;49.446;8.754;2024-01-06T20:49:24;10.90;68.80
37910;DHT22;23741;49.446;8.754;2024-01-06T20:51:30;10.80;69.10
37910;DHT22;23741;49.446;8.754;2024-01-06T20:53:32;10.80;69.40
37910;DHT22;23741;49.446;8.754;2024-01-06T20:55:37;10.70;69.70
37910;DHT22;23741;49.446;8.754;2024-01-06T20:57:39;10.70;70.00
37910;DHT22;23741;49.446;8.754;2024-01-06T20:59:41;10.70;70.10
37910;DHT22;23741;49.446;8.754;2024-01-06T21:01:43;10.60;70.40
37910;DHT22;23741;49.446;8.754;2024-01-06T21:03:45;10.60;70.70
37910;DHT22;23741;49.446;8.754;2024-01-06T21:05:47;10.60;70.90
37910;DHT22;23741;49.446;8.754;2024-01-06T21:07:49;10.60;71.00
37910;DHT22;23741;49.446;8.754;2024-01-06T21:09:51;10.60;71.10
37910;DHT22;23741;49.446;8.754;2024-01-06T21:11:53;10.60;71.20
37910;DHT22;23741;49.446;8.754;2024-01-06T21:13:58;10.60;71.30
37910;DHT22;23741;49.446;8.754;2024-01-06T21:16:00;10.60;71.30
37910;DHT22;23741;49.446;8.754;2024-01-06T21:18:04;10.70;70.90
37910;DHT22;23741;49.446;8.754;2024-01-06T21:20:06;10.60;70.60
37910;DHT22;23741;49.446;8.754;2024-01-06T21:22:09;10.60;70.80
37910;DHT22;23741;49.446;8.754;2024-01-06T21:24:11;10.60;71.10
37910;DHT22;23741;49.446;8.754;2024-01-06T21:26:13;10.60;71.30
37910;DHT22;23741;49.446;8.754;2024-01-06T21:28:15;10.60;71.30
37910;DHT22;23741;49.446;8.754;2024-01-06T21:30:17;10.60;71.40
37910;DHT22;23741;49.446;8.754;2024-01-06T21:32:21;10.60;71.50
37910;DHT22;23741;49.446;8.754;2024-01-06T21:34:23;10.60;71.50
37910;DHT22;23741;49.446;8.754;2024-01-06T21:36:26;10.60;71.50
37910;DHT22;23741;49.446;8.754;2024-01-06T21:38:30;10.60;71.30
37910;DHT22;23741;49.446;8.754;2024-01-06T21:40:32;10.60;71.30
37910;DHT22;23741;49.446;8.754;2024-01-06T21:42:34;10.60;71.40
37910;DHT22;23741;49.446;8.754;2024-01-06T21:44:37;10.60;71.30
37910;DHT22;23741;49.446;8.754;2024-01-06T21:46:39;10.60;71.50
37910;DHT22;23741;49.446;8.754;2024-01-06T21:48:41;10.60;71.50
37910;DHT22;23741;49.446;8.754;2024-01-06T21:50:43;10.60;71.50
37910;DHT22;23741;49.446;8.754;2024-01-06T21:52:45;10.60;71.50
37910;DHT22;23741;49.446;8.754;2024-01-06T21:54:47;10.70;71.60
37910;DHT22;23741;49.446;8.754;2024-01-06T21:56:49;10.70;71.30
37910;DHT22;23741;49.446;8.754;2024-01-06T21:58:51;10.70;71.30
37910;DHT22;23741;49.446;8.754;2024-01-06T22:00:53;10.60;71.40
37910;DHT22;23741;49.446;8.754;2024-01-06T22:02:58;10.70;71.50
37910;DHT22;23741;49.446;8.754;2024-01-06T22:05:00;10.70;71.50
37910;DHT22;23741;49.446;8.754;2024-01-06T22:07:02;10.70;71.40
37910;DHT22;23741;49.446;8.754;2024-01-06T22:09:05;10.70;71.30
37910;DHT22;23741;49.446;8.754;2024-01-06T22:11:13;10.70;71.70
37910;DHT22;23741;49.446;8.754;2024-01-06T22:13:15;10.60;71.50
37910;DHT22;23741;49.446;8.754;2024-01-06T22:15:17;10.60;71.20
37910;DHT22;23741;49.446;8.754;2024-01-06T22:17:19;10.60;71.20
37910;DHT22;23741;49.446;8.754;2024-01-06T22:19:21;10.60;71.20
37910;DHT22;23741;49.446;8.754;2024-01-06T22:21:23;10.60;71.20
37910;DHT22;23741;49.446;8.754;2024-01-06T22:23:24;10.60;71.20
37910;DHT22;23741;49.446;8.754;2024-01-06T22:25:26;10.60;71.30
37910;DHT22;23741;49.446;8.754;2024-01-06T22:27:28;10.60;71.40
37910;DHT22;23741;49.446;8.754;2024-01-06T22:29:30;10.60;71.40
37910;DHT22;23741;49.446;8.754;2024-01-06T22:31:33;10.60;71.70
37910;DHT22;23741;49.446;8.754;2024-01-06T22:33:38;10.60;71.70